NCAR-RAP Real-Time Weather Data

Output produced by METARs form (21 May 2019  11:19 UTC)
found at http://weather.rap.ucar.edu/surface/
 
RJFT 211100Z 29005KT 260V350 CAVOK 17/04 Q1007
RJFT 211000Z 29007KT CAVOK 19/05 Q1007
RJFT 210900Z 29008KT 260V340 CAVOK 21/07 Q1006
RJFT 210800Z 30008KT 270V350 CAVOK 23/07 Q1006
RJFT 210700Z 26007KT 170V310 CAVOK 24/07 Q1006
RJFT 210600Z 19007KT 150V270 CAVOK 24/10 Q1006
RJFT 210500Z 27006KT 220V320 9999 FEW040 23/08 Q1006
RJFT 210400Z VRB02KT 9999 FEW040 23/10 Q1006
RJFT 210300Z VRB03KT 9999 FEW040 SCT/// 21/10 Q1007
RJFT 210200Z VRB03KT 9999 FEW035 SCT/// 18/09 Q1007
RJFT 210100Z 34003KT 270V060 9999 FEW025 SCT170 BKN/// 17/10 Q1007
RJFT 210000Z 27003KT 220V330 9999 FEW020 BKN/// 16/11 Q1008
RJFT 202300Z VRB02KT 9999 FEW025 SCT150 BKN/// 15/12 Q1008
RJFT 202200Z 05001KT 9999 FEW002 BKN/// 13/12 Q1008
RJFT 202110Z VRB01KT 9999 FEW035 SCT060 BKN/// 12/12 Q1007 RMK 1CU035 3SC060 A2976 VOLCANIC ASH CLOUD E
RJFT 201200Z 30006KT 260V330 1200 R07/P1800N -SHRA BR BCFG FEW001 SCT002 BKN005 17/17 Q1006
RJFT 201100Z 24009KT 2000 -SHRA BR BCFG SCT001 BKN002 19/18 Q1005
RJFT 201034Z 24007KT 210V270 4000 -SHRA BR FEW001 SCT002 BKN004 19/18 Q1005 RMK 2ST001 4ST002 6ST004 A2970 P/RR
RJFT 201014Z 26008KT 2000 BR BCFG SCT001 BKN020 BKN080 19/18 Q1005 RMK 3ST001 6CU020 7AC080 A2969 FG ALL QUAD
RJFT 201000Z 23003KT 9999 FEW001 SCT010 BKN080 19/18 Q1004
RJFT 200935Z 16003KT 110V210 8000 FEW001 BKN007 BKN010 19/19 Q1004 RMK 2ST001 5ST007 7CU010 A2967
RJFT 200927Z 15004KT 110V200 4500 BR SCT001 BKN002 BKN010 19/19 Q1004 RMK 3ST001 6ST002 7CU010 A2967
RJFT 200919Z 17004KT 130V230 1000 R07/1100VP1800U -SHRA BR BKN001 BKN002 19/19 Q1005 RMK 5ST001 6ST002 A2968
RJFT 200917Z 18004KT 130V230 1000 R07/0700VP1800U -SHRA BR BKN001 BKN002 19/19 Q1005 RMK 5ST001 6ST002 A2968
RJFT 200913Z 17004KT 140V210 0800 R07/0600VP1800U -SHRA FG VV001 19/19 Q1005 RMK A2968
RJFT 200912Z 18004KT 140V210 0800 R07/0600VP1800U FG VV001 19/19 Q1005 RMK A2968
RJFT 200911Z 18004KT 140V220 0800 R07/0400VP1800U -SHRA FG VV001 19/19 Q1005 RMK A2968
RJFT 200900Z 21004KT 170V240 0800 R07/0450VP1800D -SHRA FG VV001 19/19 Q1005
RJFT 200848Z 17003KT 090V220 0600 R07/0350VP1800U -SHRA FG VV001 19/19 Q1005 RMK A2969
RJFT 200846Z 16003KT 090V220 0600 R07/0300VP1800U -SHRA FG VV001 19/18 Q1005 RMK A2969
RJFT 200845Z 16003KT 090V220 0600 R07/0300V0900N -SHRA FG VV001 19/18 Q1005 RMK A2969
RJFT 200833Z 18005KT 150V230 0200 R07/0300VP1800D -SHRA FG BKN001 BKN003 19/18 Q1005 RMK 5ST001 6ST003 A2969
RJFT 200832Z 18005KT 130V230 0200 R07/0300VP1800D -SHRA FG BKN001 BKN003 19/19 Q1005 RMK 5ST001 6ST003 A2969
RJFT 200831Z 17004KT 120V230 0200 R07/0300VP1800D -SHRA FG BKN001 BKN003 19/19 Q1005 RMK 5ST001 6ST003 A2969
RJFT 200829Z 17004KT 120V230 0300 R07/0350VP1800D -SHRA FG BKN001 BKN003 19/19 Q1005 RMK 5ST001 6ST003 A2969
RJFT 200827Z 16003KT 120V230 0300 R07/0400VP1800D -SHRA FG SCT001 BKN003 BKN007 19/19 Q1005 RMK 4ST001 5ST003 6ST007 A2969
RJFT 200824Z VRB01KT 0500 R07/P1800N SHRA FG FEW001 SCT003 BKN007 19/18 Q1005 RMK 2ST001 4ST003 6ST007 A2969
RJFT 200809Z VRB01KT 1200 R07/1000VP1800D +SHRA BR FEW001 SCT005 BKN010 19/19 Q1005 RMK 2ST001 4ST005 6CU010 A2969
RJFT 200802Z 35003KT 310V030 1200 R07/1000VP1800U SHRA BR FEW001 SCT002 BKN005 19/19 Q1005 RMK 2ST001 4ST002 7ST005 A2970
RJFT 200800Z 34004KT 310V010 1200 R07/1000VP1800U SHRA BR FEW001 SCT002 BKN005 19/19 Q1005
RJFT 200743Z 24007KT 1000 R07/1500VP1800D +SHRA BR SCT001 BKN002 BKN003 19/19 Q1005 RMK 3ST001 5ST002 7ST003 A2969
RJFT 200730Z 23007KT 0900 R07/P1800N SHRA FG SCT001 BKN002 BKN003 19/19 Q1005 RMK 3ST001 5ST002 7ST003 A2969
RJFT 200704Z 25010KT 1500 R07/1300VP1800D +SHRA BR FEW001 SCT002 BKN003 19/19 Q1005 RMK 1ST001 4ST002 7ST003 A2969
RJFT 200700Z 25009KT 1200 R07/1000VP1800U +SHRA BR FEW001 SCT002 BKN003 19/19 Q1005
RJFT 200644Z 26008KT 1200 R07/0900VP1800D +SHRA BR FEW001 SCT003 BKN004 19/19 Q1005 RMK 1ST001 4ST003 7ST004 A2968
RJFT 200641Z 26008KT 1200 R07/1200VP1800D +SHRA BR FEW001 SCT003 BKN004 19/19 Q1005 RMK 1ST001 4ST003 7ST004 A2968
RJFT 200617Z 25011KT 1500 R07/P1800N SHRA BR FEW001 SCT003 BKN004 20/19 Q1004 RMK 1ST001 4ST003 7ST004 A2967
RJFT 200611Z 25010KT 2000 SHRA BR FEW001 SCT003 BKN004 20/20 Q1004 RMK 1ST001 4ST003 7ST004 A2966
RJFT 200606Z 24009KT 2500 -SHRA BR FEW001 SCT003 BKN004 20/20 Q1004 RMK 1ST001 4ST003 7ST004 A2966
RJFT 200600Z 24009KT 2500 -SHRA BR FEW003 SCT005 BKN007 21/20 Q1004
RJFT 200542Z 23009KT 2500 SHRA FEW005 BKN009 BKN010 21/20 Q1004 RMK 1ST005 5CU009 7CU010 A2966
RJFT 200532Z 24009KT 200V270 4500 -SHRA BKN009 BKN010 22/21 Q1004 RMK 5CU009 7CU010 A2966
RJFT 200500Z 24009KT 9999 VCSH BKN010 BKN020 24/21 Q1004
RJFT 200400Z 23013KT 9999 VCSH BKN025 BKN090 26/20 Q1004
RJFT 200300Z 24007KT 210V280 9999 FEW025 BKN180 BKN/// 27/20 Q1004
RJFT 200200Z 26006KT 220V300 9999 FEW025 SCT180 BKN/// 27/19 Q1005
RJFT 200100Z 25007KT 220V320 9999 FEW020 SCT050 26/21 Q1005
RJFT 200000Z 24006KT 190V270 9999 FEW020 25/20 Q1005
RJFT 192300Z 20006KT 110V260 9999 VCSH FEW003 SCT060 BKN080 23/20 Q1005
RJFT 192200Z VRB04KT 9999 VCSH FEW020 SCT060 BKN070 24/18 Q1005
RJFT 192110Z VRB03KT 9999 VCSH FEW020 BKN060 22/19 Q1006 RMK 1CU020 6SC060 A2971
RJFT 191200Z 08009KT 050V130 9999 FEW020 BKN090 23/18 Q1010
RJFT 191100Z VRB08KT 9999 FEW020 BKN090 23/17 Q1010
RJFT 191000Z 08013G23KT 040V110 9999 FEW020 BKN090 23/18 Q1009
RJFT 190939Z 09015G27KT 070V140 9999 -RA FEW020 SCT070 BKN090 23/18 Q1009 RMK 1CU020 3AC070 7AC090 A2980
RJFT 190900Z 08015KT 040V110 9999 VCSH FEW025 SCT070 BKN090 23/18 Q1009
RJFT 190800Z 09012KT 070V150 9999 VCSH FEW025 SCT050 BKN090 24/18 Q1009
RJFT 190700Z 11014G29KT 040V140 9999 -RA FEW025 SCT050 BKN090 24/17 Q1010
RJFT 190615Z 08010G21KT 040V170 9999 FEW025 SCT050 BKN090 25/17 Q1010 WS R07 RMK 2CU025 3SC050 7AC090 A2982
RJFT 190600Z 15009G21KT 120V200 9999 FEW025 SCT050 BKN090 25/16 Q1009
RJFT 190531Z 14013G24KT 9999 FEW025 SCT050 BKN100 26/17 Q1009 RMK 2CU025 3SC050 7AC100 A2981
RJFT 190500Z 07008KT 9999 FEW025 SCT050 BKN100 26/18 Q1009 WS R07
RJFT 190427Z VRB05KT 9999 FEW025 SCT050 BKN100 25/17 Q1010 WS R07 RMK 2CU025 4SC050 6AC100 A2983
RJFT 190400Z 08015KT 050V140 9999 FEW025 SCT050 BKN100 26/17 Q1009
RJFT 190342Z 08015G25KT 050V120 9999 FEW025 SCT050 BKN100 26/17 Q1010 RMK 1CU025 3SC050 7AC100 A2983
RJFT 190300Z 07016KT 9999 VCSH FEW025 SCT050 BKN100 24/17 Q1010
RJFT 190200Z 07011KT 040V100 9999 FEW020 SCT035 BKN090 24/17 Q1011
RJFT 190127Z 12009G19KT 080V180 9999 FEW020 SCT030 BKN090 23/17 Q1010 RMK 1CU020 3CU030 7AC090 A2985
RJFT 190100Z 06018KT 9999 FEW020 SCT030 BKN090 22/17 Q1010
RJFT 190046Z 07016G26KT 9999 FEW020 SCT035 OVC080 23/18 Q1010 RMK 1CU020 3CU035 8AC080 A2985
RJFT 190000Z 05013KT 9999 -SHRA FEW020 SCT040 OVC080 22/18 Q1011